sensor_id;sensor_type;location;lat;lon;timestamp;P1;durP1;ratioP1;P2;durP2;ratioP2
79668;SDS011;69136;52.614;6.976;2023-07-13T00:02:03;6.07;;;1.70;;
79668;SDS011;69136;52.614;6.976;2023-07-13T00:04:48;4.20;;;1.70;;
79668;SDS011;69136;52.614;6.976;2023-07-13T00:07:32;5.20;;;1.65;;
79668;SDS011;69136;52.614;6.976;2023-07-13T00:10:17;4.45;;;1.50;;
79668;SDS011;69136;52.614;6.976;2023-07-13T00:13:02;7.03;;;1.40;;
79668;SDS011;69136;52.614;6.976;2023-07-13T00:15:46;3.38;;;1.73;;
79668;SDS011;69136;52.614;6.976;2023-07-13T00:18:31;3.88;;;1.48;;
79668;SDS011;69136;52.614;6.976;2023-07-13T00:21:15;5.85;;;1.55;;
79668;SDS011;69136;52.614;6.976;2023-07-13T00:23:59;6.50;;;1.50;;
79668;SDS011;69136;52.614;6.976;2023-07-13T00:26:44;3.72;;;1.05;;
79668;SDS011;69136;52.614;6.976;2023-07-13T00:29:29;4.03;;;1.67;;
79668;SDS011;69136;52.614;6.976;2023-07-13T00:32:14;7.10;;;1.88;;
79668;SDS011;69136;52.614;6.976;2023-07-13T00:34:58;4.47;;;1.63;;
79668;SDS011;69136;52.614;6.976;2023-07-13T00:37:44;3.58;;;1.45;;
79668;SDS011;69136;52.614;6.976;2023-07-13T00:40:29;5.28;;;1.20;;
79668;SDS011;69136;52.614;6.976;2023-07-13T00:43:13;5.80;;;1.90;;
79668;SDS011;69136;52.614;6.976;2023-07-13T00:46:14;3.90;;;1.52;;
79668;SDS011;69136;52.614;6.976;2023-07-13T00:49:01;6.90;;;1.50;;
79668;SDS011;69136;52.614;6.976;2023-07-13T00:54:39;6.28;;;1.45;;
79668;SDS011;69136;52.614;6.976;2023-07-13T01:00:10;6.50;;;1.70;;
79668;SDS011;69136;52.614;6.976;2023-07-13T01:02:55;4.88;;;1.42;;
79668;SDS011;69136;52.614;6.976;2023-07-13T01:05:42;5.53;;;1.60;;
79668;SDS011;69136;52.614;6.976;2023-07-13T01:08:26;7.47;;;1.50;;
79668;SDS011;69136;52.614;6.976;2023-07-13T01:11:11;4.85;;;1.15;;
79668;SDS011;69136;52.614;6.976;2023-07-13T01:13:55;6.75;;;1.20;;
79668;SDS011;69136;52.614;6.976;2023-07-13T01:16:40;4.15;;;1.55;;
79668;SDS011;69136;52.614;6.976;2023-07-13T01:19:37;5.32;;;1.42;;
79668;SDS011;69136;52.614;6.976;2023-07-13T01:22:22;6.65;;;1.42;;
79668;SDS011;69136;52.614;6.976;2023-07-13T01:25:09;5.90;;;1.80;;
79668;SDS011;69136;52.614;6.976;2023-07-13T01:27:53;7.68;;;1.70;;
79668;SDS011;69136;52.614;6.976;2023-07-13T01:30:39;9.70;;;1.50;;
79668;SDS011;69136;52.614;6.976;2023-07-13T01:33:24;5.50;;;1.27;;
79668;SDS011;69136;52.614;6.976;2023-07-13T01:36:11;5.60;;;1.90;;
79668;SDS011;69136;52.614;6.976;2023-07-13T01:38:56;6.25;;;1.67;;
79668;SDS011;69136;52.614;6.976;2023-07-13T01:41:40;5.80;;;1.50;;
79668;SDS011;69136;52.614;6.976;2023-07-13T01:44:24;9.77;;;2.17;;
79668;SDS011;69136;52.614;6.976;2023-07-13T01:47:09;11.10;;;1.60;;
79668;SDS011;69136;52.614;6.976;2023-07-13T01:49:54;4.63;;;1.58;;
79668;SDS011;69136;52.614;6.976;2023-07-13T01:52:38;8.93;;;1.58;;
79668;SDS011;69136;52.614;6.976;2023-07-13T01:55:22;6.45;;;1.50;;
79668;SDS011;69136;52.614;6.976;2023-07-13T01:58:08;5.72;;;1.38;;
79668;SDS011;69136;52.614;6.976;2023-07-13T02:00:53;8.50;;;1.67;;
79668;SDS011;69136;52.614;6.976;2023-07-13T02:03:38;4.72;;;1.23;;
79668;SDS011;69136;52.614;6.976;2023-07-13T02:06:22;5.22;;;1.50;;
79668;SDS011;69136;52.614;6.976;2023-07-13T02:09:06;6.53;;;1.90;;
79668;SDS011;69136;52.614;6.976;2023-07-13T02:11:51;5.43;;;1.40;;
79668;SDS011;69136;52.614;6.976;2023-07-13T02:14:37;3.95;;;1.40;;
79668;SDS011;69136;52.614;6.976;2023-07-13T02:17:21;4.30;;;1.83;;
79668;SDS011;69136;52.614;6.976;2023-07-13T02:20:05;6.82;;;1.60;;
79668;SDS011;69136;52.614;6.976;2023-07-13T02:22:50;9.82;;;1.63;;
79668;SDS011;69136;52.614;6.976;2023-07-13T02:25:38;7.20;;;1.90;;
79668;SDS011;69136;52.614;6.976;2023-07-13T02:28:23;7.93;;;2.03;;
79668;SDS011;69136;52.614;6.976;2023-07-13T02:31:08;4.68;;;1.50;;
79668;SDS011;69136;52.614;6.976;2023-07-13T02:33:54;6.95;;;1.75;;
79668;SDS011;69136;52.614;6.976;2023-07-13T02:36:39;5.53;;;1.40;;
79668;SDS011;69136;52.614;6.976;2023-07-13T02:39:23;5.50;;;1.60;;
79668;SDS011;69136;52.614;6.976;2023-07-13T02:42:11;4.22;;;2.05;;
79668;SDS011;69136;52.614;6.976;2023-07-13T02:44:55;5.35;;;1.90;;
79668;SDS011;69136;52.614;6.976;2023-07-13T02:47:40;8.15;;;1.80;;
79668;SDS011;69136;52.614;6.976;2023-07-13T02:50:24;4.93;;;1.83;;
79668;SDS011;69136;52.614;6.976;2023-07-13T02:53:08;8.90;;;2.08;;
79668;SDS011;69136;52.614;6.976;2023-07-13T02:55:52;2.33;;;1.20;;
79668;SDS011;69136;52.614;6.976;2023-07-13T02:58:37;7.68;;;1.75;;
79668;SDS011;69136;52.614;6.976;2023-07-13T03:01:23;7.18;;;1.85;;
79668;SDS011;69136;52.614;6.976;2023-07-13T03:04:07;4.20;;;1.80;;
79668;SDS011;69136;52.614;6.976;2023-07-13T03:06:54;7.25;;;1.90;;
79668;SDS011;69136;52.614;6.976;2023-07-13T03:09:44;5.68;;;2.00;;
79668;SDS011;69136;52.614;6.976;2023-07-13T03:12:29;8.38;;;2.30;;
79668;SDS011;69136;52.614;6.976;2023-07-13T03:15:13;3.85;;;1.52;;
79668;SDS011;69136;52.614;6.976;2023-07-13T03:18:00;7.13;;;1.73;;
79668;SDS011;69136;52.614;6.976;2023-07-13T03:20:50;3.78;;;1.38;;
79668;SDS011;69136;52.614;6.976;2023-07-13T03:23:38;7.25;;;2.08;;
79668;SDS011;69136;52.614;6.976;2023-07-13T03:26:22;4.40;;;2.17;;
79668;SDS011;69136;52.614;6.976;2023-07-13T03:29:07;7.93;;;1.90;;
79668;SDS011;69136;52.614;6.976;2023-07-13T03:31:52;3.65;;;1.67;;
79668;SDS011;69136;52.614;6.976;2023-07-13T03:34:37;7.20;;;1.83;;
79668;SDS011;69136;52.614;6.976;2023-07-13T03:37:23;9.65;;;2.17;;
79668;SDS011;69136;52.614;6.976;2023-07-13T03:40:08;9.00;;;2.30;;
79668;SDS011;69136;52.614;6.976;2023-07-13T03:42:53;6.72;;;2.03;;
79668;SDS011;69136;52.614;6.976;2023-07-13T03:45:39;6.07;;;1.88;;
79668;SDS011;69136;52.614;6.976;2023-07-13T03:48:22;4.95;;;1.70;;
79668;SDS011;69136;52.614;6.976;2023-07-13T03:51:09;5.15;;;1.88;;
79668;SDS011;69136;52.614;6.976;2023-07-13T03:53:53;4.38;;;1.52;;
79668;SDS011;69136;52.614;6.976;2023-07-13T03:56:38;6.30;;;1.83;;
79668;SDS011;69136;52.614;6.976;2023-07-13T03:59:25;4.88;;;1.60;;
79668;SDS011;69136;52.614;6.976;2023-07-13T04:02:09;6.80;;;1.80;;
79668;SDS011;69136;52.614;6.976;2023-07-13T04:04:54;6.47;;;1.75;;
79668;SDS011;69136;52.614;6.976;2023-07-13T04:07:39;5.43;;;1.55;;
79668;SDS011;69136;52.614;6.976;2023-07-13T04:10:24;6.38;;;2.22;;
79668;SDS011;69136;52.614;6.976;2023-07-13T04:13:08;5.20;;;1.70;;
79668;SDS011;69136;52.614;6.976;2023-07-13T04:15:52;7.47;;;1.77;;
79668;SDS011;69136;52.614;6.976;2023-07-13T04:18:37;7.40;;;1.90;;
79668;SDS011;69136;52.614;6.976;2023-07-13T04:21:21;5.00;;;2.03;;
79668;SDS011;69136;52.614;6.976;2023-07-13T04:24:06;8.18;;;2.10;;
79668;SDS011;69136;52.614;6.976;2023-07-13T04:26:51;7.18;;;2.33;;
79668;SDS011;69136;52.614;6.976;2023-07-13T04:29:35;7.00;;;2.25;;
79668;SDS011;69136;52.614;6.976;2023-07-13T04:32:20;6.63;;;2.20;;
79668;SDS011;69136;52.614;6.976;2023-07-13T04:35:07;7.38;;;2.10;;
79668;SDS011;69136;52.614;6.976;2023-07-13T04:37:54;7.20;;;1.95;;
79668;SDS011;69136;52.614;6.976;2023-07-13T04:40:38;5.88;;;2.25;;
79668;SDS011;69136;52.614;6.976;2023-07-13T04:43:23;6.10;;;1.90;;
79668;SDS011;69136;52.614;6.976;2023-07-13T04:46:08;8.75;;;2.33;;
79668;SDS011;69136;52.614;6.976;2023-07-13T04:48:55;6.72;;;1.83;;
79668;SDS011;69136;52.614;6.976;2023-07-13T04:51:39;7.15;;;2.05;;
79668;SDS011;69136;52.614;6.976;2023-07-13T04:54:23;8.45;;;2.20;;
79668;SDS011;69136;52.614;6.976;2023-07-13T04:57:07;6.60;;;2.17;;
79668;SDS011;69136;52.614;6.976;2023-07-13T04:59:54;10.73;;;2.50;;
79668;SDS011;69136;52.614;6.976;2023-07-13T05:02:38;7.38;;;2.33;;
79668;SDS011;69136;52.614;6.976;2023-07-13T05:05:23;4.68;;;2.25;;
79668;SDS011;69136;52.614;6.976;2023-07-13T05:08:08;11.70;;;2.58;;
79668;SDS011;69136;52.614;6.976;2023-07-13T05:10:52;9.02;;;2.47;;
79668;SDS011;69136;52.614;6.976;2023-07-13T05:13:37;6.10;;;2.00;;
79668;SDS011;69136;52.614;6.976;2023-07-13T05:16:21;7.43;;;2.22;;
79668;SDS011;69136;52.614;6.976;2023-07-13T05:19:05;6.78;;;2.17;;
79668;SDS011;69136;52.614;6.976;2023-07-13T05:21:50;6.78;;;2.60;;
79668;SDS011;69136;52.614;6.976;2023-07-13T05:24:34;6.80;;;2.75;;
79668;SDS011;69136;52.614;6.976;2023-07-13T05:27:18;9.75;;;2.28;;
79668;SDS011;69136;52.614;6.976;2023-07-13T05:30:02;7.53;;;2.28;;
79668;SDS011;69136;52.614;6.976;2023-07-13T05:32:48;13.27;;;2.83;;
79668;SDS011;69136;52.614;6.976;2023-07-13T05:35:32;9.80;;;2.90;;
79668;SDS011;69136;52.614;6.976;2023-07-13T05:38:16;7.47;;;2.45;;
79668;SDS011;69136;52.614;6.976;2023-07-13T05:41:01;7.22;;;2.97;;
79668;SDS011;69136;52.614;6.976;2023-07-13T05:43:45;9.00;;;2.60;;
79668;SDS011;69136;52.614;6.976;2023-07-13T05:46:29;6.93;;;2.33;;
79668;SDS011;69136;52.614;6.976;2023-07-13T05:49:14;5.57;;;2.22;;
79668;SDS011;69136;52.614;6.976;2023-07-13T05:51:59;8.40;;;3.00;;
79668;SDS011;69136;52.614;6.976;2023-07-13T05:54:43;5.78;;;2.90;;
79668;SDS011;69136;52.614;6.976;2023-07-13T05:57:26;6.47;;;2.55;;
79668;SDS011;69136;52.614;6.976;2023-07-13T06:00:11;8.50;;;2.88;;
79668;SDS011;69136;52.614;6.976;2023-07-13T06:02:56;8.63;;;3.00;;
79668;SDS011;69136;52.614;6.976;2023-07-13T06:05:42;9.05;;;3.10;;
79668;SDS011;69136;52.614;6.976;2023-07-13T06:08:26;8.40;;;3.00;;
79668;SDS011;69136;52.614;6.976;2023-07-13T06:13:59;8.98;;;2.88;;
79668;SDS011;69136;52.614;6.976;2023-07-13T06:16:43;4.82;;;2.40;;
79668;SDS011;69136;52.614;6.976;2023-07-13T06:19:28;5.15;;;2.22;;
79668;SDS011;69136;52.614;6.976;2023-07-13T06:22:13;4.65;;;2.35;;
79668;SDS011;69136;52.614;6.976;2023-07-13T06:24:57;7.03;;;2.67;;
79668;SDS011;69136;52.614;6.976;2023-07-13T06:27:41;9.02;;;2.58;;
79668;SDS011;69136;52.614;6.976;2023-07-13T06:30:27;8.57;;;2.50;;
79668;SDS011;69136;52.614;6.976;2023-07-13T06:33:12;6.25;;;2.42;;
79668;SDS011;69136;52.614;6.976;2023-07-13T06:35:56;6.20;;;2.03;;
79668;SDS011;69136;52.614;6.976;2023-07-13T06:38:39;7.47;;;2.42;;
79668;SDS011;69136;52.614;6.976;2023-07-13T06:41:24;6.43;;;2.47;;
79668;SDS011;69136;52.614;6.976;2023-07-13T06:44:14;7.50;;;2.33;;
79668;SDS011;69136;52.614;6.976;2023-07-13T06:47:06;7.35;;;2.33;;
79668;SDS011;69136;52.614;6.976;2023-07-13T06:49:50;6.43;;;2.22;;
79668;SDS011;69136;52.614;6.976;2023-07-13T06:52:35;4.43;;;2.13;;
79668;SDS011;69136;52.614;6.976;2023-07-13T06:55:19;6.20;;;2.13;;
79668;SDS011;69136;52.614;6.976;2023-07-13T06:58:03;13.45;;;2.85;;
79668;SDS011;69136;52.614;6.976;2023-07-13T07:00:50;7.30;;;2.72;;
79668;SDS011;69136;52.614;6.976;2023-07-13T07:03:35;10.93;;;2.53;;
79668;SDS011;69136;52.614;6.976;2023-07-13T07:06:21;8.40;;;2.40;;
79668;SDS011;69136;52.614;6.976;2023-07-13T07:09:07;10.13;;;2.95;;
79668;SDS011;69136;52.614;6.976;2023-07-13T07:11:52;9.35;;;2.90;;
79668;SDS011;69136;52.614;6.976;2023-07-13T07:14:36;6.88;;;2.33;;
79668;SDS011;69136;52.614;6.976;2023-07-13T07:17:20;10.25;;;2.60;;
79668;SDS011;69136;52.614;6.976;2023-07-13T07:20:05;9.35;;;3.03;;
79668;SDS011;69136;52.614;6.976;2023-07-13T07:22:49;5.85;;;2.35;;
79668;SDS011;69136;52.614;6.976;2023-07-13T07:25:33;8.52;;;3.03;;
79668;SDS011;69136;52.614;6.976;2023-07-13T07:28:21;7.90;;;2.50;;
79668;SDS011;69136;52.614;6.976;2023-07-13T07:31:05;7.38;;;2.30;;
79668;SDS011;69136;52.614;6.976;2023-07-13T07:33:49;7.57;;;3.42;;
79668;SDS011;69136;52.614;6.976;2023-07-13T07:36:34;11.52;;;2.90;;
79668;SDS011;69136;52.614;6.976;2023-07-13T07:39:18;8.60;;;2.97;;
79668;SDS011;69136;52.614;6.976;2023-07-13T07:42:02;8.48;;;3.05;;
79668;SDS011;69136;52.614;6.976;2023-07-13T07:44:47;6.75;;;2.95;;
79668;SDS011;69136;52.614;6.976;2023-07-13T07:47:30;11.10;;;3.25;;
79668;SDS011;69136;52.614;6.976;2023-07-13T07:50:15;7.80;;;3.03;;
79668;SDS011;69136;52.614;6.976;2023-07-13T07:52:59;9.63;;;2.72;;
79668;SDS011;69136;52.614;6.976;2023-07-13T07:55:46;8.68;;;3.33;;
79668;SDS011;69136;52.614;6.976;2023-07-13T07:58:31;9.63;;;3.25;;
79668;SDS011;69136;52.614;6.976;2023-07-13T08:01:15;7.32;;;3.35;;
79668;SDS011;69136;52.614;6.976;2023-07-13T08:04:00;8.45;;;2.90;;
79668;SDS011;69136;52.614;6.976;2023-07-13T08:06:44;5.60;;;3.10;;
79668;SDS011;69136;52.614;6.976;2023-07-13T08:09:28;8.07;;;3.78;;
79668;SDS011;69136;52.614;6.976;2023-07-13T08:12:13;9.27;;;3.05;;
79668;SDS011;69136;52.614;6.976;2023-07-13T08:14:56;9.05;;;3.63;;
79668;SDS011;69136;52.614;6.976;2023-07-13T08:17:44;10.43;;;3.35;;
79668;SDS011;69136;52.614;6.976;2023-07-13T08:20:28;12.07;;;3.58;;
79668;SDS011;69136;52.614;6.976;2023-07-13T08:23:13;8.70;;;3.53;;
79668;SDS011;69136;52.614;6.976;2023-07-13T08:25:57;10.32;;;4.10;;
79668;SDS011;69136;52.614;6.976;2023-07-13T08:28:41;10.88;;;4.35;;
79668;SDS011;69136;52.614;6.976;2023-07-13T08:31:25;8.32;;;3.30;;
79668;SDS011;69136;52.614;6.976;2023-07-13T08:34:09;7.90;;;3.22;;
79668;SDS011;69136;52.614;6.976;2023-07-13T08:36:53;7.38;;;3.45;;
79668;SDS011;69136;52.614;6.976;2023-07-13T08:39:37;6.30;;;3.35;;
79668;SDS011;69136;52.614;6.976;2023-07-13T08:42:39;10.65;;;3.70;;
79668;SDS011;69136;52.614;6.976;2023-07-13T08:45:42;11.20;;;4.40;;
79668;SDS011;69136;52.614;6.976;2023-07-13T08:48:29;13.48;;;4.47;;
79668;SDS011;69136;52.614;6.976;2023-07-13T08:54:18;9.98;;;4.00;;
79668;SDS011;69136;52.614;6.976;2023-07-13T08:57:10;11.88;;;4.78;;
79668;SDS011;69136;52.614;6.976;2023-07-13T08:59:58;10.68;;;4.35;;
79668;SDS011;69136;52.614;6.976;2023-07-13T09:02:45;6.47;;;3.63;;
79668;SDS011;69136;52.614;6.976;2023-07-13T09:05:33;10.18;;;4.25;;
79668;SDS011;69136;52.614;6.976;2023-07-13T09:08:29;8.88;;;4.15;;
79668;SDS011;69136;52.614;6.976;2023-07-13T09:17:40;7.05;;;4.35;;
79668;SDS011;69136;52.614;6.976;2023-07-13T09:20:37;9.68;;;4.72;;
79668;SDS011;69136;52.614;6.976;2023-07-13T09:23:26;7.53;;;4.55;;
79668;SDS011;69136;52.614;6.976;2023-07-13T09:26:18;11.32;;;4.75;;
79668;SDS011;69136;52.614;6.976;2023-07-13T09:29:09;10.18;;;4.47;;
79668;SDS011;69136;52.614;6.976;2023-07-13T09:31:57;7.85;;;3.60;;
79668;SDS011;69136;52.614;6.976;2023-07-13T09:34:42;9.43;;;4.03;;
79668;SDS011;69136;52.614;6.976;2023-07-13T09:37:34;8.50;;;4.43;;
79668;SDS011;69136;52.614;6.976;2023-07-13T09:40:24;9.32;;;4.65;;
79668;SDS011;69136;52.614;6.976;2023-07-13T09:43:13;7.10;;;4.65;;
79668;SDS011;69136;52.614;6.976;2023-07-13T09:45:58;9.73;;;4.95;;
79668;SDS011;69136;52.614;6.976;2023-07-13T09:48:43;10.50;;;5.32;;
79668;SDS011;69136;52.614;6.976;2023-07-13T09:51:28;13.18;;;5.95;;
79668;SDS011;69136;52.614;6.976;2023-07-13T09:54:19;6.55;;;4.05;;
79668;SDS011;69136;52.614;6.976;2023-07-13T09:57:15;7.50;;;3.47;;
79668;SDS011;69136;52.614;6.976;2023-07-13T10:00:00;4.38;;;2.45;;
79668;SDS011;69136;52.614;6.976;2023-07-13T10:02:45;2.25;;;1.50;;
79668;SDS011;69136;52.614;6.976;2023-07-13T10:05:37;3.25;;;1.83;;
79668;SDS011;69136;52.614;6.976;2023-07-13T10:08:26;3.80;;;1.88;;
79668;SDS011;69136;52.614;6.976;2023-07-13T10:11:19;3.45;;;1.33;;
79668;SDS011;69136;52.614;6.976;2023-07-13T10:14:12;1.80;;;1.45;;
79668;SDS011;69136;52.614;6.976;2023-07-13T10:17:01;2.95;;;1.80;;
79668;SDS011;69136;52.614;6.976;2023-07-13T10:19:47;3.67;;;1.67;;
79668;SDS011;69136;52.614;6.976;2023-07-13T10:25:37;3.28;;;2.20;;
79668;SDS011;69136;52.614;6.976;2023-07-13T10:31:14;3.67;;;2.10;;
79668;SDS011;69136;52.614;6.976;2023-07-13T10:34:00;4.40;;;2.25;;
79668;SDS011;69136;52.614;6.976;2023-07-13T10:36:45;2.80;;;1.90;;
79668;SDS011;69136;52.614;6.976;2023-07-13T10:39:30;3.08;;;1.95;;
79668;SDS011;69136;52.614;6.976;2023-07-13T10:42:20;4.80;;;2.47;;
79668;SDS011;69136;52.614;6.976;2023-07-13T10:45:17;3.17;;;1.90;;
79668;SDS011;69136;52.614;6.976;2023-07-13T10:50:49;2.67;;;2.08;;
79668;SDS011;69136;52.614;6.976;2023-07-13T10:53:37;3.13;;;2.00;;
79668;SDS011;69136;52.614;6.976;2023-07-13T10:56:29;4.18;;;2.83;;
79668;SDS011;69136;52.614;6.976;2023-07-13T10:59:15;6.07;;;3.03;;
79668;SDS011;69136;52.614;6.976;2023-07-13T11:04:46;5.65;;;2.70;;
79668;SDS011;69136;52.614;6.976;2023-07-13T11:07:31;5.70;;;3.35;;
79668;SDS011;69136;52.614;6.976;2023-07-13T11:10:57;8.02;;;3.50;;
79668;SDS011;69136;52.614;6.976;2023-07-13T11:16:33;7.13;;;4.32;;
79668;SDS011;69136;52.614;6.976;2023-07-13T11:24:51;5.40;;;2.60;;
79668;SDS011;69136;52.614;6.976;2023-07-13T11:28:44;5.78;;;2.28;;
79668;SDS011;69136;52.614;6.976;2023-07-13T11:31:01;2.38;;;1.70;;
79668;SDS011;69136;52.614;6.976;2023-07-13T11:33:50;3.53;;;1.40;;
79668;SDS011;69136;52.614;6.976;2023-07-13T11:36:39;3.40;;;1.63;;
79668;SDS011;69136;52.614;6.976;2023-07-13T11:39:29;3.85;;;1.80;;
79668;SDS011;69136;52.614;6.976;2023-07-13T11:42:16;3.88;;;1.60;;
79668;SDS011;69136;52.614;6.976;2023-07-13T11:45:02;2.65;;;1.50;;
79668;SDS011;69136;52.614;6.976;2023-07-13T11:48:03;3.45;;;1.85;;
79668;SDS011;69136;52.614;6.976;2023-07-13T11:51:21;2.72;;;1.50;;
79668;SDS011;69136;52.614;6.976;2023-07-13T11:54:23;3.47;;;1.70;;
79668;SDS011;69136;52.614;6.976;2023-07-13T11:57:25;1.80;;;1.38;;
79668;SDS011;69136;52.614;6.976;2023-07-13T12:00:16;2.67;;;1.50;;
79668;SDS011;69136;52.614;6.976;2023-07-13T12:03:03;2.95;;;1.85;;
79668;SDS011;69136;52.614;6.976;2023-07-13T12:06:02;2.10;;;1.60;;
79668;SDS011;69136;52.614;6.976;2023-07-13T12:08:51;3.58;;;2.22;;
79668;SDS011;69136;52.614;6.976;2023-07-13T12:11:36;2.58;;;2.25;;
79668;SDS011;69136;52.614;6.976;2023-07-13T12:14:22;3.40;;;2.30;;
79668;SDS011;69136;52.614;6.976;2023-07-13T12:17:20;3.72;;;2.50;;
79668;SDS011;69136;52.614;6.976;2023-07-13T12:20:17;3.15;;;2.00;;
79668;SDS011;69136;52.614;6.976;2023-07-13T12:23:20;4.47;;;2.38;;
79668;SDS011;69136;52.614;6.976;2023-07-13T12:26:09;3.13;;;2.30;;
79668;SDS011;69136;52.614;6.976;2023-07-13T12:28:55;3.42;;;2.53;;
79668;SDS011;69136;52.614;6.976;2023-07-13T12:31:41;6.50;;;2.58;;
79668;SDS011;69136;52.614;6.976;2023-07-13T12:34:30;3.15;;;2.58;;
79668;SDS011;69136;52.614;6.976;2023-07-13T12:37:14;4.40;;;2.78;;
79668;SDS011;69136;52.614;6.976;2023-07-13T12:39:59;3.53;;;2.38;;
79668;SDS011;69136;52.614;6.976;2023-07-13T12:42:45;4.35;;;2.90;;
79668;SDS011;69136;52.614;6.976;2023-07-13T12:45:32;5.15;;;2.63;;
79668;SDS011;69136;52.614;6.976;2023-07-13T12:48:16;3.92;;;2.63;;
79668;SDS011;69136;52.614;6.976;2023-07-13T12:51:02;3.40;;;2.28;;
79668;SDS011;69136;52.614;6.976;2023-07-13T12:53:48;5.03;;;2.50;;
79668;SDS011;69136;52.614;6.976;2023-07-13T12:56:34;3.78;;;2.47;;
79668;SDS011;69136;52.614;6.976;2023-07-13T12:59:19;4.60;;;2.85;;
79668;SDS011;69136;52.614;6.976;2023-07-13T13:02:09;4.22;;;2.80;;
79668;SDS011;69136;52.614;6.976;2023-07-13T13:05:16;4.25;;;2.63;;
79668;SDS011;69136;52.614;6.976;2023-07-13T13:08:01;4.88;;;2.70;;
79668;SDS011;69136;52.614;6.976;2023-07-13T13:10:46;3.65;;;2.80;;
79668;SDS011;69136;52.614;6.976;2023-07-13T13:13:30;6.03;;;2.97;;
79668;SDS011;69136;52.614;6.976;2023-07-13T13:19:41;5.97;;;2.97;;
79668;SDS011;69136;52.614;6.976;2023-07-13T13:22:25;7.13;;;3.28;;
79668;SDS011;69136;52.614;6.976;2023-07-13T13:25:13;5.22;;;2.70;;
79668;SDS011;69136;52.614;6.976;2023-07-13T13:28:12;6.55;;;2.80;;
79668;SDS011;69136;52.614;6.976;2023-07-13T13:30:58;4.93;;;2.55;;
79668;SDS011;69136;52.614;6.976;2023-07-13T13:33:43;4.05;;;2.55;;
79668;SDS011;69136;52.614;6.976;2023-07-13T13:36:30;4.70;;;2.50;;
79668;SDS011;69136;52.614;6.976;2023-07-13T13:39:24;5.72;;;2.63;;
79668;SDS011;69136;52.614;6.976;2023-07-13T13:44:54;6.68;;;2.83;;
79668;SDS011;69136;52.614;6.976;2023-07-13T13:47:41;5.43;;;2.85;;
79668;SDS011;69136;52.614;6.976;2023-07-13T13:50:27;4.70;;;2.42;;
79668;SDS011;69136;52.614;6.976;2023-07-13T13:53:12;4.63;;;2.65;;
79668;SDS011;69136;52.614;6.976;2023-07-13T13:56:00;5.30;;;2.78;;
79668;SDS011;69136;52.614;6.976;2023-07-13T13:58:44;5.55;;;2.65;;
79668;SDS011;69136;52.614;6.976;2023-07-13T14:01:28;6.50;;;2.50;;
79668;SDS011;69136;52.614;6.976;2023-07-13T14:04:16;7.25;;;2.63;;
79668;SDS011;69136;52.614;6.976;2023-07-13T14:07:08;4.57;;;2.47;;
79668;SDS011;69136;52.614;6.976;2023-07-13T14:10:01;6.43;;;2.97;;
79668;SDS011;69136;52.614;6.976;2023-07-13T14:13:22;6.38;;;2.75;;
79668;SDS011;69136;52.614;6.976;2023-07-13T14:16:37;3.75;;;2.90;;
79668;SDS011;69136;52.614;6.976;2023-07-13T14:19:37;6.13;;;2.92;;
79668;SDS011;69136;52.614;6.976;2023-07-13T14:22:36;6.45;;;2.63;;
79668;SDS011;69136;52.614;6.976;2023-07-13T14:35:12;6.07;;;2.78;;
79668;SDS011;69136;52.614;6.976;2023-07-13T14:37:57;5.90;;;2.30;;
79668;SDS011;69136;52.614;6.976;2023-07-13T14:41:15;5.00;;;2.35;;
79668;SDS011;69136;52.614;6.976;2023-07-13T14:44:13;5.15;;;2.30;;
79668;SDS011;69136;52.614;6.976;2023-07-13T14:46:59;3.58;;;1.90;;
79668;SDS011;69136;52.614;6.976;2023-07-13T14:49:53;2.97;;;1.80;;
79668;SDS011;69136;52.614;6.976;2023-07-13T14:53:30;5.95;;;2.55;;
79668;SDS011;69136;52.614;6.976;2023-07-13T14:56:56;4.15;;;1.98;;
79668;SDS011;69136;52.614;6.976;2023-07-13T14:59:46;5.72;;;2.50;;
79668;SDS011;69136;52.614;6.976;2023-07-13T15:02:34;3.95;;;1.45;;
79668;SDS011;69136;52.614;6.976;2023-07-13T15:05:37;4.90;;;1.50;;
79668;SDS011;69136;52.614;6.976;2023-07-13T15:11:56;2.92;;;0.98;;
79668;SDS011;69136;52.614;6.976;2023-07-13T15:15:09;2.78;;;1.10;;
79668;SDS011;69136;52.614;6.976;2023-07-13T15:18:07;10.00;;;2.10;;
79668;SDS011;69136;52.614;6.976;2023-07-13T15:20:54;4.70;;;1.50;;
79668;SDS011;69136;52.614;6.976;2023-07-13T15:23:48;3.15;;;1.20;;
79668;SDS011;69136;52.614;6.976;2023-07-13T15:26:32;2.55;;;1.60;;
79668;SDS011;69136;52.614;6.976;2023-07-13T15:29:20;2.72;;;1.52;;
79668;SDS011;69136;52.614;6.976;2023-07-13T15:32:14;2.88;;;1.45;;
79668;SDS011;69136;52.614;6.976;2023-07-13T15:35:01;3.55;;;1.40;;
79668;SDS011;69136;52.614;6.976;2023-07-13T15:38:16;4.00;;;1.10;;
79668;SDS011;69136;52.614;6.976;2023-07-13T15:41:26;3.65;;;1.35;;
79668;SDS011;69136;52.614;6.976;2023-07-13T15:44:23;4.50;;;1.67;;
79668;SDS011;69136;52.614;6.976;2023-07-13T15:47:20;5.32;;;1.63;;
79668;SDS011;69136;52.614;6.976;2023-07-13T15:50:14;3.20;;;1.45;;
79668;SDS011;69136;52.614;6.976;2023-07-13T15:53:18;7.10;;;1.73;;
79668;SDS011;69136;52.614;6.976;2023-07-13T15:56:53;4.07;;;1.52;;
79668;SDS011;69136;52.614;6.976;2023-07-13T15:59:39;2.35;;;1.25;;
79668;SDS011;69136;52.614;6.976;2023-07-13T16:02:28;2.60;;;1.10;;
79668;SDS011;69136;52.614;6.976;2023-07-13T16:05:14;2.95;;;1.25;;
79668;SDS011;69136;52.614;6.976;2023-07-13T16:07:59;4.95;;;1.52;;
79668;SDS011;69136;52.614;6.976;2023-07-13T16:10:45;4.97;;;1.48;;
79668;SDS011;69136;52.614;6.976;2023-07-13T16:13:30;4.80;;;1.52;;
79668;SDS011;69136;52.614;6.976;2023-07-13T16:16:14;2.40;;;1.23;;
79668;SDS011;69136;52.614;6.976;2023-07-13T16:19:04;4.30;;;1.40;;
79668;SDS011;69136;52.614;6.976;2023-07-13T16:25:19;2.83;;;1.25;;
79668;SDS011;69136;52.614;6.976;2023-07-13T16:28:05;3.17;;;1.52;;
79668;SDS011;69136;52.614;6.976;2023-07-13T16:31:35;2.53;;;1.15;;
79668;SDS011;69136;52.614;6.976;2023-07-13T16:34:49;2.13;;;1.10;;
79668;SDS011;69136;52.614;6.976;2023-07-13T16:37:33;2.88;;;1.27;;
79668;SDS011;69136;52.614;6.976;2023-07-13T16:40:38;3.58;;;1.33;;
79668;SDS011;69136;52.614;6.976;2023-07-13T16:43:39;2.70;;;1.10;;
79668;SDS011;69136;52.614;6.976;2023-07-13T16:46:28;2.03;;;1.00;;
79668;SDS011;69136;52.614;6.976;2023-07-13T16:49:20;3.30;;;1.50;;
79668;SDS011;69136;52.614;6.976;2023-07-13T16:52:13;6.13;;;1.42;;
79668;SDS011;69136;52.614;6.976;2023-07-13T16:55:03;4.72;;;1.35;;
79668;SDS011;69136;52.614;6.976;2023-07-13T16:57:47;3.78;;;1.40;;
79668;SDS011;69136;52.614;6.976;2023-07-13T17:00:32;4.22;;;1.50;;
79668;SDS011;69136;52.614;6.976;2023-07-13T17:03:19;3.05;;;1.08;;
79668;SDS011;69136;52.614;6.976;2023-07-13T17:06:18;3.97;;;1.30;;
79668;SDS011;69136;52.614;6.976;2023-07-13T17:09:31;2.70;;;1.25;;
79668;SDS011;69136;52.614;6.976;2023-07-13T17:12:26;3.05;;;1.23;;
79668;SDS011;69136;52.614;6.976;2023-07-13T17:15:28;2.97;;;1.60;;
79668;SDS011;69136;52.614;6.976;2023-07-13T17:18:13;5.28;;;1.75;;
79668;SDS011;69136;52.614;6.976;2023-07-13T17:21:04;4.43;;;2.03;;
79668;SDS011;69136;52.614;6.976;2023-07-13T17:24:15;2.53;;;1.20;;
79668;SDS011;69136;52.614;6.976;2023-07-13T17:27:13;6.13;;;1.75;;
79668;SDS011;69136;52.614;6.976;2023-07-13T17:30:17;2.95;;;1.30;;
79668;SDS011;69136;52.614;6.976;2023-07-13T17:33:28;2.75;;;1.35;;
79668;SDS011;69136;52.614;6.976;2023-07-13T17:36:44;2.65;;;1.58;;
79668;SDS011;69136;52.614;6.976;2023-07-13T17:39:30;1.95;;;1.27;;
79668;SDS011;69136;52.614;6.976;2023-07-13T17:42:21;2.72;;;1.50;;
79668;SDS011;69136;52.614;6.976;2023-07-13T17:48:12;3.55;;;1.58;;
79668;SDS011;69136;52.614;6.976;2023-07-13T17:51:09;3.47;;;1.67;;
79668;SDS011;69136;52.614;6.976;2023-07-13T17:53:57;3.10;;;1.42;;
79668;SDS011;69136;52.614;6.976;2023-07-13T17:57:08;4.05;;;1.75;;
79668;SDS011;69136;52.614;6.976;2023-07-13T18:00:24;5.05;;;1.70;;
79668;SDS011;69136;52.614;6.976;2023-07-13T18:03:33;3.08;;;1.50;;